createdAt,value
2023-03-29T00:02:13.161Z,3.73
2023-03-29T00:04:42.933Z,3.60
2023-03-29T00:07:14.369Z,2.73
2023-03-29T00:09:44.118Z,2.70
2023-03-29T00:12:13.156Z,3.00
2023-03-29T00:14:44.179Z,2.80
2023-03-29T00:17:13.611Z,2.70
2023-03-29T00:19:45.054Z,2.70
2023-03-29T00:22:14.573Z,2.50
2023-03-29T00:24:44.064Z,3.23
2023-03-29T00:27:13.265Z,3.00
2023-03-29T00:29:43.931Z,2.20
2023-03-29T00:32:13.240Z,2.80
2023-03-29T00:34:42.893Z,2.97
2023-03-29T00:37:12.558Z,2.80
2023-03-29T00:39:42.336Z,3.23
2023-03-29T00:42:14.096Z,4.10
2023-03-29T00:45:04.849Z,2.80
2023-03-29T00:47:37.664Z,3.23
2023-03-29T00:50:09.802Z,3.33
2023-03-29T00:52:39.743Z,3.10
2023-03-29T00:55:11.378Z,3.27
2023-03-29T00:57:43.453Z,2.83
2023-03-29T01:00:15.585Z,3.20
2023-03-29T01:02:46.412Z,2.70
2023-03-29T01:05:18.589Z,2.80
2023-03-29T01:07:53.784Z,2.60
2023-03-29T01:10:26.001Z,4.10
2023-03-29T01:12:58.398Z,4.43
2023-03-29T01:15:29.971Z,3.47
2023-03-29T01:18:02.156Z,2.80
2023-03-29T01:20:43.531Z,2.43
2023-03-29T01:23:27.119Z,2.33
2023-03-29T01:25:59.572Z,3.23
2023-03-29T01:28:31.584Z,3.30
2023-03-29T01:31:03.907Z,2.63
2023-03-29T01:33:34.896Z,2.90
2023-03-29T01:36:08.392Z,2.90
2023-03-29T01:38:42.206Z,3.47
2023-03-29T01:41:12.314Z,3.07
2023-03-29T01:43:45.824Z,2.90
2023-03-29T01:46:19.166Z,3.30
2023-03-29T01:48:50.857Z,2.80
2023-03-29T01:51:24.831Z,2.77
2023-03-29T01:53:57.604Z,2.50
2023-03-29T01:56:28.853Z,3.60
2023-03-29T01:59:00.295Z,3.33
2023-03-29T02:01:32.223Z,3.30
2023-03-29T02:04:04.340Z,3.17
2023-03-29T02:06:36.263Z,3.40
2023-03-29T02:09:07.195Z,3.30
2023-03-29T02:15:38.751Z,3.50
2023-03-29T02:18:08.979Z,2.50
2023-03-29T02:20:41.041Z,3.37
2023-03-29T02:23:12.603Z,2.27
2023-03-29T02:25:42.911Z,3.03
2023-03-29T02:28:12.468Z,2.70
2023-03-29T02:30:46.674Z,2.53
2023-03-29T02:33:16.977Z,2.83
2023-03-29T02:35:49.570Z,2.50
2023-03-29T02:38:18.939Z,2.60
2023-03-29T02:40:48.657Z,3.07
2023-03-29T02:43:18.568Z,3.83
2023-03-29T02:45:49.681Z,3.43
2023-03-29T02:48:20.744Z,2.53
2023-03-29T02:50:51.686Z,3.43
2023-03-29T02:53:23.283Z,2.63
2023-03-29T02:55:54.240Z,2.77
2023-03-29T02:58:29.170Z,3.10
2023-03-29T03:01:05.522Z,2.80
2023-03-29T03:03:35.909Z,2.47
2023-03-29T03:06:06.542Z,3.17
2023-03-29T03:08:35.701Z,3.10
2023-03-29T03:11:04.969Z,2.70
2023-03-29T03:13:34.301Z,2.50
2023-03-29T03:16:04.956Z,2.90
2023-03-29T03:18:34.614Z,3.00
2023-03-29T03:21:04.961Z,3.40
2023-03-29T03:23:34.990Z,2.70
2023-03-29T03:26:04.217Z,2.57
2023-03-29T03:28:35.317Z,3.10
2023-03-29T03:31:09.237Z,4.73
2023-03-29T03:34:01.347Z,2.93
2023-03-29T03:36:47.654Z,3.07
2023-03-29T03:39:17.496Z,3.73
2023-03-29T03:41:46.602Z,4.80
2023-03-29T03:44:16.290Z,2.90
2023-03-29T03:46:49.482Z,3.47
2023-03-29T03:49:19.392Z,3.70
2023-03-29T03:51:49.814Z,3.50
2023-03-29T03:54:20.405Z,3.33
2023-03-29T03:57:28.226Z,4.60
2023-03-29T03:59:57.817Z,3.90
2023-03-29T04:02:31.758Z,3.50
2023-03-29T04:05:03.182Z,3.63
2023-03-29T04:07:37.149Z,3.50
2023-03-29T04:10:24.730Z,4.13
2023-03-29T04:13:14.138Z,4.03
2023-03-29T04:16:03.915Z,3.73
2023-03-29T04:18:35.061Z,3.67
2023-03-29T04:21:04.915Z,3.37
2023-03-29T04:23:36.313Z,3.60
2023-03-29T04:26:06.658Z,3.50
2023-03-29T04:28:54.029Z,4.50
2023-03-29T04:31:32.497Z,3.97
2023-03-29T04:34:14.419Z,3.87
2023-03-29T04:36:43.762Z,3.63
2023-03-29T04:39:20.192Z,4.00
2023-03-29T04:41:54.615Z,4.03
2023-03-29T04:44:28.980Z,3.67
2023-03-29T04:47:00.555Z,3.93
2023-03-29T04:49:48.754Z,4.20
2023-03-29T04:52:26.655Z,3.20
2023-03-29T04:54:57.982Z,3.87
2023-03-29T04:57:34.513Z,3.70
2023-03-29T05:00:15.367Z,3.93
2023-03-29T05:03:04.998Z,3.83
2023-03-29T05:05:38.947Z,3.53
2023-03-29T05:08:10.788Z,3.07
2023-03-29T05:10:54.487Z,3.33
2023-03-29T05:13:24.110Z,2.77
2023-03-29T05:15:53.349Z,3.30
2023-03-29T05:18:26.132Z,3.50
2023-03-29T05:20:57.157Z,3.67
2023-03-29T05:23:27.140Z,3.00
2023-03-29T05:26:16.745Z,3.63
2023-03-29T05:28:51.695Z,3.40
2023-03-29T05:31:21.147Z,3.40
2023-03-29T05:33:54.546Z,3.03
2023-03-29T05:36:25.988Z,3.40
2023-03-29T05:38:57.085Z,3.53
2023-03-29T05:41:26.839Z,3.30
2023-03-29T05:43:55.868Z,3.10
2023-03-29T05:46:28.001Z,3.30
2023-03-29T05:48:59.499Z,3.30
2023-03-29T05:51:46.697Z,3.10
2023-03-29T05:54:18.549Z,2.90
2023-03-29T05:57:13.237Z,5.20
2023-03-29T05:59:43.599Z,3.30
2023-03-29T06:02:16.196Z,3.30
2023-03-29T06:04:50.714Z,3.70
2023-03-29T06:07:23.485Z,3.50
2023-03-29T06:10:22.232Z,2.97
2023-03-29T06:12:58.049Z,4.27
2023-03-29T06:15:28.040Z,4.23
2023-03-29T06:18:06.138Z,3.40
2023-03-29T06:20:37.705Z,3.10
2023-03-29T06:23:14.446Z,4.00
2023-03-29T06:25:46.079Z,3.77
2023-03-29T06:28:15.689Z,4.30
2023-03-29T06:30:46.219Z,3.80
2023-03-29T06:33:16.972Z,3.40
2023-03-29T06:36:14.056Z,3.60
2023-03-29T06:38:46.179Z,3.30
2023-03-29T06:41:34.016Z,3.67
2023-03-29T06:44:06.268Z,3.73
2023-03-29T06:46:40.140Z,3.30
2023-03-29T06:49:12.277Z,5.53
2023-03-29T06:51:57.143Z,4.73
2023-03-29T06:54:28.147Z,4.90
2023-03-29T06:57:05.445Z,3.80
2023-03-29T06:59:36.304Z,5.70
2023-03-29T07:02:40.037Z,4.40
2023-03-29T07:05:13.678Z,2.90
2023-03-29T07:07:57.063Z,4.67
2023-03-29T07:10:45.814Z,3.60
2023-03-29T07:13:49.197Z,3.40
2023-03-29T07:16:22.129Z,3.00
2023-03-29T07:18:57.602Z,3.37
2023-03-29T07:21:46.096Z,3.23
2023-03-29T07:24:17.109Z,4.50
2023-03-29T07:26:59.995Z,4.10
2023-03-29T07:29:33.124Z,4.80
2023-03-29T07:32:02.334Z,4.53
2023-03-29T07:34:43.777Z,3.53
2023-03-29T07:37:24.809Z,3.43
2023-03-29T07:39:55.373Z,3.93
2023-03-29T07:42:32.033Z,3.03
2023-03-29T07:45:01.562Z,3.47
2023-03-29T07:47:36.637Z,3.17
2023-03-29T07:50:07.512Z,4.20
2023-03-29T07:52:38.520Z,2.90
2023-03-29T07:55:08.797Z,3.47
2023-03-29T07:57:59.957Z,3.73
2023-03-29T08:00:29.639Z,3.20
2023-03-29T08:03:46.726Z,4.70
2023-03-29T08:06:17.274Z,3.27
2023-03-29T08:08:46.388Z,3.00
2023-03-29T08:11:18.996Z,3.87
2023-03-29T08:14:09.155Z,3.00
2023-03-29T08:17:02.172Z,3.37
2023-03-29T08:19:33.082Z,3.23
2023-03-29T08:22:07.880Z,4.00
2023-03-29T08:25:00.337Z,3.97
2023-03-29T08:27:35.325Z,5.57
2023-03-29T08:30:06.820Z,3.37
2023-03-29T08:32:38.248Z,3.20
2023-03-29T08:35:10.379Z,3.10
2023-03-29T08:37:48.940Z,2.47
2023-03-29T08:40:22.388Z,2.20
2023-03-29T08:43:31.010Z,2.50
2023-03-29T08:46:22.800Z,2.80
2023-03-29T08:48:56.680Z,2.50
2023-03-29T08:51:29.802Z,2.50
2023-03-29T08:54:02.063Z,2.20
2023-03-29T08:56:47.649Z,2.50
2023-03-29T08:59:33.403Z,2.57
2023-03-29T09:02:13.741Z,3.47
2023-03-29T09:04:43.903Z,3.00
2023-03-29T09:07:26.669Z,3.00
2023-03-29T09:09:57.516Z,5.83
2023-03-29T09:12:39.807Z,4.30
2023-03-29T09:15:13.711Z,3.00
2023-03-29T09:17:54.737Z,3.77
2023-03-29T09:20:29.816Z,3.60
2023-03-29T09:23:07.249Z,2.47
2023-03-29T09:25:54.532Z,3.27
2023-03-29T09:28:33.695Z,3.17
2023-03-29T09:31:06.437Z,2.80
2023-03-29T09:33:42.908Z,2.83
2023-03-29T09:36:19.649Z,3.77
2023-03-29T09:38:54.618Z,2.90
2023-03-29T09:41:29.676Z,4.10
2023-03-29T09:44:00.325Z,4.17
2023-03-29T09:46:38.338Z,3.80
2023-03-29T09:49:13.382Z,3.37
2023-03-29T09:51:44.272Z,3.63
2023-03-29T09:54:13.889Z,3.90
2023-03-29T09:57:19.106Z,3.70
2023-03-29T09:59:50.622Z,3.70
2023-03-29T10:02:21.458Z,3.30
2023-03-29T10:04:58.996Z,2.97
2023-03-29T10:07:35.868Z,3.00
2023-03-29T10:10:09.743Z,3.60
2023-03-29T10:12:39.409Z,3.57
2023-03-29T10:15:16.735Z,4.40
2023-03-29T10:17:59.596Z,4.37
2023-03-29T10:20:30.347Z,3.37
2023-03-29T10:23:00.306Z,3.20
2023-03-29T10:25:31.430Z,3.27
2023-03-29T10:28:05.704Z,3.27
2023-03-29T10:30:37.394Z,4.87
2023-03-29T10:33:08.610Z,3.57
2023-03-29T10:35:42.325Z,2.70
2023-03-29T10:38:13.594Z,2.77
2023-03-29T10:40:45.164Z,3.47
2023-03-29T10:43:15.994Z,3.00
2023-03-29T10:45:45.879Z,3.07
2023-03-29T10:48:16.327Z,3.03
2023-03-29T10:50:50.491Z,3.03
2023-03-29T10:53:24.567Z,3.20
2023-03-29T10:55:58.149Z,3.60
2023-03-29T10:58:34.353Z,2.70
2023-03-29T11:01:04.556Z,3.27
2023-03-29T11:03:48.468Z,3.53
2023-03-29T11:06:22.222Z,3.60
2023-03-29T11:08:55.472Z,2.87
2023-03-29T11:11:45.827Z,3.07
2023-03-29T11:14:18.502Z,3.87
2023-03-29T11:16:51.106Z,3.50
2023-03-29T11:19:27.846Z,2.30
2023-03-29T11:22:03.911Z,2.63
2023-03-29T11:24:39.345Z,3.30
2023-03-29T11:27:16.167Z,2.97
2023-03-29T11:29:49.118Z,2.70
2023-03-29T11:32:22.577Z,3.13
2023-03-29T11:34:58.133Z,3.33
2023-03-29T11:37:34.024Z,2.90
2023-03-29T11:40:10.876Z,2.90
2023-03-29T11:42:42.132Z,2.50
2023-03-29T11:45:15.155Z,3.30
2023-03-29T11:47:46.016Z,2.40
2023-03-29T11:50:19.705Z,2.17
2023-03-29T11:52:53.442Z,2.90
2023-03-29T11:55:26.258Z,2.80
2023-03-29T11:57:58.062Z,3.00
2023-03-29T12:00:30.470Z,3.23
2023-03-29T12:03:03.572Z,2.23
2023-03-29T12:05:34.560Z,2.80
2023-03-29T12:08:07.236Z,2.70
2023-03-29T12:10:38.370Z,3.37
2023-03-29T12:13:09.550Z,2.93
2023-03-29T12:15:43.359Z,3.40
2023-03-29T12:18:19.433Z,3.37
2023-03-29T12:20:50.704Z,3.77
2023-03-29T12:23:21.617Z,3.47
2023-03-29T12:25:55.123Z,3.63
2023-03-29T12:28:42.584Z,3.37
2023-03-29T12:31:17.562Z,3.10
2023-03-29T12:34:01.821Z,3.37
2023-03-29T12:37:03.808Z,4.40
2023-03-29T12:40:14.576Z,3.33
2023-03-29T12:43:05.399Z,3.20
2023-03-29T12:45:56.306Z,2.97
2023-03-29T12:48:26.839Z,2.87
2023-03-29T12:51:01.173Z,4.20
2023-03-29T12:53:33.227Z,3.37
2023-03-29T12:56:18.129Z,3.43
2023-03-29T12:58:55.989Z,3.47
2023-03-29T13:01:30.306Z,3.10
2023-03-29T13:04:14.973Z,4.53
2023-03-29T13:07:02.958Z,3.27
2023-03-29T13:09:35.698Z,4.17
2023-03-29T13:12:20.964Z,3.93
2023-03-29T13:14:53.072Z,3.43
2023-03-29T13:17:27.089Z,3.27
2023-03-29T13:20:05.250Z,2.80
2023-03-29T13:22:38.388Z,2.87
2023-03-29T13:25:13.360Z,2.47
2023-03-29T13:27:47.757Z,2.80
2023-03-29T13:30:22.882Z,2.73
2023-03-29T13:32:57.722Z,3.00
2023-03-29T13:35:33.983Z,2.27
2023-03-29T13:38:07.721Z,2.90
2023-03-29T13:40:44.709Z,2.73
2023-03-29T13:43:23.767Z,2.40
2023-03-29T13:46:07.030Z,3.30
2023-03-29T13:48:50.841Z,2.50
2023-03-29T13:51:26.319Z,3.37
2023-03-29T13:53:57.269Z,3.00
2023-03-29T13:56:29.173Z,3.80
2023-03-29T13:59:05.796Z,4.03
2023-03-29T14:01:40.218Z,2.50
2023-03-29T14:04:14.146Z,3.20
2023-03-29T14:06:45.244Z,2.60
2023-03-29T14:09:15.687Z,2.20
2023-03-29T14:11:46.703Z,3.20
2023-03-29T14:14:18.284Z,2.67
2023-03-29T14:16:47.937Z,2.90
2023-03-29T14:19:19.392Z,3.07
2023-03-29T14:21:48.820Z,3.30
2023-03-29T14:24:20.769Z,2.83
2023-03-29T14:26:50.081Z,3.30
2023-03-29T14:29:21.881Z,3.40
2023-03-29T14:31:52.433Z,3.10
2023-03-29T14:34:21.553Z,2.90
2023-03-29T14:36:54.236Z,3.20
2023-03-29T14:39:24.501Z,2.80
2023-03-29T14:41:54.411Z,3.20
2023-03-29T14:44:27.166Z,3.10
2023-03-29T14:46:56.874Z,3.33
2023-03-29T14:49:26.402Z,2.90
2023-03-29T14:51:56.722Z,2.70
2023-03-29T14:54:27.693Z,2.70
2023-03-29T14:56:57.098Z,2.90
2023-03-29T14:59:29.814Z,2.23
2023-03-29T15:01:59.193Z,2.50
2023-03-29T15:04:34.434Z,2.80
2023-03-29T15:07:05.323Z,2.30
2023-03-29T15:09:36.024Z,2.43
2023-03-29T15:12:05.478Z,2.50
2023-03-29T15:14:37.172Z,2.90
2023-03-29T15:17:08.509Z,2.23
2023-03-29T15:19:38.382Z,5.30
2023-03-29T15:22:11.403Z,2.80
2023-03-29T15:24:46.904Z,2.40
2023-03-29T15:27:17.081Z,2.50
2023-03-29T15:29:48.634Z,2.57
2023-03-29T15:32:24.868Z,2.67
2023-03-29T15:35:00.227Z,2.70
2023-03-29T15:37:30.480Z,2.73
2023-03-29T15:39:59.989Z,2.93
2023-03-29T15:42:29.323Z,2.80
2023-03-29T15:45:00.133Z,3.27
2023-03-29T15:47:29.773Z,2.70
2023-03-29T15:49:59.001Z,2.83
2023-03-29T15:52:28.303Z,2.53
2023-03-29T15:54:57.700Z,3.50
2023-03-29T15:57:27.457Z,2.83
2023-03-29T15:59:56.912Z,2.37
2023-03-29T16:02:28.231Z,3.30
2023-03-29T16:04:57.768Z,3.77
2023-03-29T16:07:26.971Z,2.60
2023-03-29T16:09:56.059Z,3.30
2023-03-29T16:12:25.966Z,2.90
2023-03-29T16:14:55.169Z,3.30
2023-03-29T16:17:24.399Z,3.77
2023-03-29T16:19:55.007Z,3.63
2023-03-29T16:22:24.335Z,2.50
2023-03-29T16:24:53.442Z,3.27
2023-03-29T16:27:22.610Z,2.93
2023-03-29T16:29:51.626Z,3.70
2023-03-29T16:32:21.030Z,3.70
2023-03-29T16:34:50.469Z,3.90
2023-03-29T16:37:21.494Z,3.73
2023-03-29T16:39:56.260Z,3.67
2023-03-29T16:42:25.675Z,4.00
2023-03-29T16:44:55.055Z,3.20
2023-03-29T16:47:24.400Z,3.00
2023-03-29T16:49:53.522Z,4.37
2023-03-29T16:52:24.575Z,4.30
2023-03-29T16:54:54.010Z,3.63
2023-03-29T16:57:23.102Z,3.53
2023-03-29T16:59:52.927Z,4.13
2023-03-29T17:02:22.194Z,4.50
2023-03-29T17:04:51.649Z,3.67
2023-03-29T17:07:21.126Z,4.10
2023-03-29T17:09:52.573Z,3.67
2023-03-29T17:12:21.800Z,4.33
2023-03-29T17:14:51.285Z,4.53
2023-03-29T17:17:21.207Z,4.33
2023-03-29T17:19:50.599Z,3.80
2023-03-29T17:22:19.987Z,4.20
2023-03-29T17:24:49.177Z,4.20
2023-03-29T17:27:19.869Z,5.73
2023-03-29T17:29:49.149Z,4.77
2023-03-29T17:32:18.430Z,4.30
2023-03-29T17:34:48.163Z,4.37
2023-03-29T17:37:17.633Z,4.10
2023-03-29T17:39:46.767Z,5.37
2023-03-29T17:42:17.778Z,4.80
2023-03-29T17:44:48.421Z,4.67
2023-03-29T17:47:17.631Z,5.10
2023-03-29T17:49:47.106Z,5.50
2023-03-29T17:52:16.395Z,5.60
2023-03-29T17:54:45.690Z,5.27
2023-03-29T17:57:16.440Z,4.97
2023-03-29T17:59:45.685Z,5.47
2023-03-29T18:02:18.384Z,5.90
2023-03-29T18:04:47.700Z,5.57
2023-03-29T18:07:17.264Z,4.90
2023-03-29T18:09:46.436Z,4.83
2023-03-29T18:12:15.762Z,4.63
2023-03-29T18:14:44.905Z,4.50
2023-03-29T18:17:13.998Z,6.00
2023-03-29T18:19:44.985Z,4.63
2023-03-29T18:22:14.090Z,5.57
2023-03-29T18:24:43.453Z,6.10
2023-03-29T18:27:13.146Z,5.40
2023-03-29T18:29:42.436Z,5.00
2023-03-29T18:32:11.744Z,5.37
2023-03-29T18:34:40.986Z,4.90
2023-03-29T18:37:15.203Z,5.57
2023-03-29T18:39:44.916Z,6.10
2023-03-29T18:42:14.113Z,4.83
2023-03-29T18:44:43.871Z,5.20
2023-03-29T18:47:12.924Z,3.40
2023-03-29T18:49:42.162Z,5.63
2023-03-29T18:52:12.826Z,4.93
2023-03-29T18:54:42.423Z,4.53
2023-03-29T18:57:11.621Z,6.40
2023-03-29T18:59:40.904Z,4.40
2023-03-29T19:02:10.170Z,4.57
2023-03-29T19:04:39.855Z,4.30
2023-03-29T19:07:09.870Z,7.83
2023-03-29T19:09:41.836Z,5.17
2023-03-29T19:12:11.386Z,4.60
2023-03-29T19:14:40.956Z,5.40
2023-03-29T19:17:10.106Z,5.23
2023-03-29T19:19:39.184Z,4.40
2023-03-29T19:22:08.348Z,3.93
2023-03-29T19:24:37.388Z,4.40
2023-03-29T19:27:10.137Z,5.10
2023-03-29T19:29:41.195Z,5.83
2023-03-29T19:32:10.518Z,5.57
2023-03-29T19:34:39.797Z,4.53
2023-03-29T19:37:08.846Z,4.83
2023-03-29T19:39:38.100Z,5.03
2023-03-29T19:42:08.828Z,6.00
2023-03-29T19:44:38.553Z,5.80
2023-03-29T19:47:07.838Z,5.53
2023-03-29T19:49:38.401Z,4.90
2023-03-29T19:52:07.748Z,4.40
2023-03-29T19:54:36.925Z,4.50
2023-03-29T19:57:07.401Z,4.67
2023-03-29T19:59:40.828Z,3.87
2023-03-29T20:02:11.789Z,4.77
2023-03-29T20:04:41.152Z,4.17
2023-03-29T20:07:10.841Z,4.60
2023-03-29T20:09:39.858Z,5.03
2023-03-29T20:12:08.959Z,6.83
2023-03-29T20:14:40.482Z,5.60
2023-03-29T20:17:09.737Z,6.03
2023-03-29T20:19:44.213Z,5.00
2023-03-29T20:22:13.814Z,6.23
2023-03-29T20:24:42.970Z,5.00
2023-03-29T20:27:12.465Z,6.97
2023-03-29T20:29:42.919Z,7.60
2023-03-29T20:32:12.089Z,6.60
2023-03-29T20:34:44.954Z,4.60
2023-03-29T20:37:14.813Z,4.90
2023-03-29T20:39:44.014Z,4.97
2023-03-29T20:42:14.466Z,8.63
2023-03-29T20:44:50.610Z,5.17
2023-03-29T20:47:20.334Z,5.40
2023-03-29T20:49:54.264Z,4.80
2023-03-29T20:52:24.435Z,9.67
2023-03-29T20:54:53.546Z,6.87
2023-03-29T20:57:23.053Z,5.30
2023-03-29T20:59:53.669Z,6.37
2023-03-29T21:02:24.373Z,4.90
2023-03-29T21:04:54.106Z,4.83
2023-03-29T21:07:23.622Z,5.63
2023-03-29T21:09:53.020Z,5.30
2023-03-29T21:12:23.627Z,5.30
2023-03-29T21:14:54.233Z,4.60
2023-03-29T21:17:23.396Z,6.13
2023-03-29T21:19:53.363Z,3.93
2023-03-29T21:22:23.467Z,3.90
2023-03-29T21:24:52.825Z,3.80
2023-03-29T21:27:21.922Z,4.17
2023-03-29T21:29:51.414Z,3.60
2023-03-29T21:32:21.935Z,3.43
2023-03-29T21:34:51.096Z,3.60
2023-03-29T21:37:20.191Z,4.30
2023-03-29T21:39:49.626Z,4.50
2023-03-29T21:42:18.793Z,4.37
2023-03-29T21:44:48.493Z,3.37
2023-03-29T21:47:17.777Z,3.33
2023-03-29T21:49:49.017Z,4.03
2023-03-29T21:52:18.577Z,3.93
2023-03-29T21:54:47.701Z,3.67
2023-03-29T21:57:17.071Z,3.50
2023-03-29T21:59:46.247Z,3.20
2023-03-29T22:02:15.572Z,2.90
2023-03-29T22:04:44.779Z,3.00
2023-03-29T22:07:15.603Z,3.57
2023-03-29T22:09:44.847Z,2.33
2023-03-29T22:12:14.249Z,2.83
2023-03-29T22:14:43.404Z,2.40
2023-03-29T22:17:12.516Z,2.60
2023-03-29T22:19:41.911Z,2.53
2023-03-29T22:22:14.105Z,3.57
2023-03-29T22:24:45.030Z,2.87
2023-03-29T22:27:14.372Z,5.37
2023-03-29T22:29:43.513Z,2.60
2023-03-29T22:32:13.261Z,3.90
2023-03-29T22:34:42.517Z,2.40
2023-03-29T22:37:11.813Z,2.07
2023-03-29T22:39:40.909Z,3.13
2023-03-29T22:42:11.487Z,2.33
2023-03-29T22:44:40.849Z,2.83
2023-03-29T22:47:09.965Z,3.07
2023-03-29T22:49:39.462Z,2.40
2023-03-29T22:52:12.163Z,2.10
2023-03-29T22:54:41.424Z,1.90
2023-03-29T22:57:12.039Z,1.93
2023-03-29T22:59:41.965Z,2.00
2023-03-29T23:02:11.322Z,2.47
2023-03-29T23:04:42.411Z,1.70
2023-03-29T23:07:12.009Z,3.07
2023-03-29T23:09:41.211Z,2.30
2023-03-29T23:12:11.996Z,3.20
2023-03-29T23:14:42.765Z,3.20
2023-03-29T23:17:12.820Z,2.87
2023-03-29T23:19:42.106Z,2.97
2023-03-29T23:22:11.903Z,2.83
2023-03-29T23:24:43.572Z,2.67
2023-03-29T23:27:15.569Z,2.77
2023-03-29T23:29:45.395Z,2.63
2023-03-29T23:32:15.777Z,2.20
2023-03-29T23:34:45.380Z,3.20
2023-03-29T23:37:14.690Z,2.60
2023-03-29T23:39:43.817Z,2.23
2023-03-29T23:42:14.699Z,3.10
2023-03-29T23:44:44.025Z,2.70
2023-03-29T23:47:13.091Z,2.97
2023-03-29T23:49:45.513Z,2.60
2023-03-29T23:52:14.790Z,2.53
2023-03-29T23:54:44.303Z,2.33
2023-03-29T23:57:15.570Z,2.33
2023-03-29T23:59:44.805Z,2.20
